createdAt,value
2018-01-20T00:06:15.483Z,1000.68
2018-01-20T00:16:13.006Z,1000.72
2018-01-20T00:26:13.018Z,1000.73
2018-01-20T00:36:12.969Z,1000.6
2018-01-20T00:46:13.068Z,1000.58
2018-01-20T00:56:13.014Z,1000.5
2018-01-20T01:06:12.959Z,1000.38
2018-01-20T01:16:13.071Z,1000.41
2018-01-20T01:26:12.989Z,1000.33
2018-01-20T01:36:13.097Z,1000.28
2018-01-20T01:46:13.111Z,1000.32
2018-01-20T01:56:13.065Z,1000.32
2018-01-20T02:06:13.027Z,1000.26
2018-01-20T02:16:13.085Z,1000.29
2018-01-20T02:26:13.049Z,1000.25
2018-01-20T02:36:13.106Z,1000.28
2018-01-20T02:46:13.075Z,1000.36
2018-01-20T02:56:13.152Z,1000.29
2018-01-20T03:06:13.100Z,1000.23
2018-01-20T03:16:13.079Z,1000.03
2018-01-20T03:26:13.142Z,1000.05
2018-01-20T03:36:13.088Z,999.84
2018-01-20T03:46:13.140Z,999.68
2018-01-20T03:56:13.097Z,999.66
2018-01-20T04:06:13.200Z,999.58
2018-01-20T04:16:13.168Z,999.43
2018-01-20T04:26:13.226Z,999.4
2018-01-20T04:36:13.154Z,999.24
2018-01-20T04:46:13.222Z,999.19
2018-01-20T04:56:13.171Z,999.16
2018-01-20T05:06:13.249Z,999.09
2018-01-20T05:16:13.196Z,999.04
2018-01-20T05:26:13.167Z,998.97
2018-01-20T05:36:13.239Z,998.92
2018-01-20T05:46:13.221Z,998.89
2018-01-20T05:56:13.258Z,998.95
2018-01-20T06:06:13.206Z,998.93
2018-01-20T06:16:13.298Z,998.89
2018-01-20T06:26:13.235Z,998.79
2018-01-20T06:36:13.314Z,998.78
2018-01-20T06:46:13.251Z,998.82
2018-01-20T06:56:13.356Z,998.75
2018-01-20T07:06:13.288Z,998.58
2018-01-20T07:16:13.258Z,998.68
2018-01-20T07:26:13.311Z,998.68
2018-01-20T07:36:13.283Z,998.61
2018-01-20T07:46:13.325Z,998.64
2018-01-20T07:56:13.306Z,998.52
2018-01-20T08:06:13.344Z,998.44
2018-01-20T08:16:13.296Z,998.38
2018-01-20T08:26:13.406Z,998.45
2018-01-20T08:36:13.372Z,998.45
2018-01-20T08:46:13.411Z,998.36
2018-01-20T08:56:13.354Z,998.3
2018-01-20T09:06:13.332Z,998.17
2018-01-20T09:16:13.362Z,998.17
2018-01-20T09:26:13.351Z,998.12
2018-01-20T09:36:13.430Z,998.04
2018-01-20T09:46:13.376Z,997.86
2018-01-20T09:56:13.397Z,997.71
2018-01-20T10:06:13.408Z,997.58
2018-01-20T10:16:13.482Z,997.53
2018-01-20T10:26:13.421Z,997.46
2018-01-20T10:36:13.502Z,997.25
2018-01-20T10:46:13.509Z,997.14
2018-01-20T10:56:13.439Z,996.99
2018-01-20T11:06:13.471Z,996.93
2018-01-20T11:16:13.451Z,996.7
2018-01-20T11:26:13.550Z,996.47
2018-01-20T11:36:13.450Z,996.23
2018-01-20T11:46:13.518Z,996.14
2018-01-20T11:56:13.482Z,995.9
2018-01-20T12:06:13.529Z,995.64
2018-01-20T12:16:13.497Z,995.36
2018-01-20T12:26:13.547Z,995.15
2018-01-20T12:36:13.508Z,995
2018-01-20T12:46:13.604Z,994.79
2018-01-20T12:56:13.563Z,994.6
2018-01-20T13:06:13.601Z,994.41
2018-01-20T13:16:13.560Z,994.19
2018-01-20T13:26:13.520Z,994
2018-01-20T13:36:13.608Z,993.84
2018-01-20T13:46:13.547Z,993.76
2018-01-20T13:56:13.617Z,993.6
2018-01-20T14:06:13.572Z,993.48
2018-01-20T14:16:13.678Z,993.38
2018-01-20T14:26:13.621Z,993.31
2018-01-20T14:36:13.677Z,993.17
2018-01-20T14:46:13.615Z,993.19
2018-01-20T14:56:13.691Z,993.13
2018-01-20T15:06:13.662Z,992.98
2018-01-20T15:16:13.700Z,992.9
2018-01-20T15:26:13.600Z,992.77
2018-01-20T15:36:13.725Z,992.68
2018-01-20T15:46:13.689Z,992.58
2018-01-20T15:56:13.695Z,992.46
2018-01-20T16:06:13.748Z,992.46
2018-01-20T16:16:13.684Z,992.42
2018-01-20T16:26:13.733Z,992.41
2018-01-20T16:36:13.699Z,992.39
2018-01-20T16:46:13.774Z,992.5
2018-01-20T16:56:13.712Z,992.6
2018-01-20T17:06:13.808Z,992.61
2018-01-20T17:16:13.775Z,992.73
2018-01-20T17:26:13.825Z,992.74
2018-01-20T17:36:14.899Z,992.68
2018-01-20T17:46:13.838Z,992.72
2018-01-20T17:56:13.817Z,992.7
2018-01-20T18:06:13.745Z,992.64
2018-01-20T18:16:13.829Z,992.68
2018-01-20T18:26:13.792Z,992.55
2018-01-20T18:36:13.878Z,992.67
2018-01-20T18:46:13.817Z,992.83
2018-01-20T18:56:13.923Z,992.84
2018-01-20T19:06:13.923Z,992.75
2018-01-20T19:16:13.844Z,992.9
2018-01-20T19:26:13.942Z,992.97
2018-01-20T19:36:13.854Z,993.24
2018-01-20T19:46:13.928Z,993.35
2018-01-20T19:56:13.895Z,993.39
2018-01-20T20:06:13.866Z,993.51
2018-01-20T20:16:13.913Z,993.61
2018-01-20T20:26:13.873Z,993.65
2018-01-20T20:36:13.918Z,993.77
2018-01-20T20:46:13.883Z,993.69
2018-01-20T20:56:13.958Z,993.82
2018-01-20T21:06:13.920Z,993.94
2018-01-20T21:16:17.605Z,994.1
2018-01-20T21:26:16.588Z,994.21
2018-01-20T21:36:13.965Z,994.37
2018-01-20T21:46:14.018Z,994.66
2018-01-20T21:56:13.982Z,994.73
2018-01-20T22:06:14.039Z,994.74
2018-01-20T22:16:14.007Z,994.88
2018-01-20T22:26:14.055Z,995
2018-01-20T22:36:14.067Z,995.06
2018-01-20T22:46:13.991Z,995.15
2018-01-20T22:56:14.049Z,995.27
2018-01-20T23:06:14.008Z,995.38
2018-01-20T23:16:14.052Z,995.59
2018-01-20T23:26:14.027Z,995.81
2018-01-20T23:36:14.106Z,995.94
2018-01-20T23:46:14.059Z,996.1
2018-01-20T23:56:14.124Z,996.29
